Portada
METAR-TAF:

METAR-TAF

Aeropuertos :

Aeropuerto de Badajoz

Badajoz, España

latitud: 38-53N, longitud: 006-49W, altitud: 185 m

Observación

El informe se hizo hace 24 minutos, a las 07:00 UTC
Viento 7 kt del oeste, variando entre oeste-suroeste y oeste-noroeste
Temperatura 18°C
Humedad 77%
Presión 1016 hPa
Visibilidad 10 km o más
sin nubes por debajo de 1500 m y sin presencia de cumulonimbus.

METAR: LEBZ 210700Z 27007KT 240V300 CAVOK 18/14 Q1016

Hora: 09:24 (07:24 UTC)

Pronóstico

El informe se hizo hace 2 horas y 24 minutos, a las 05:00 UTC
Pronóstico válido del 21 a las 06 UTC al 22 a las 06 UTC
Viento 9 kt del oeste-suroeste
Visibilidad 10 km o más
sin nubes por debajo de 1500 m y sin presencia de cumulonimbus.

TAF: LEBZ 210500Z 2106/2206 25009KT CAVOK TX34/2116Z TN16/2106Z

Observaciones y pronósticos meteorológicos de más de 4000 aeropuertos (mensajes METAR y TAF).

Los puntos amarillos y rojos representan las estaciones disponibles.

Ponga el ratón en el punto deseado para ver el nombre de la estación.

Haga clic para ver las observaciones y los pronósticos meteorológicos.

Para cambiar el mapa : haga clic en los botones verdes con una cruz de color negro para hacer un zoom, en el botón verde con un guión para alejar o en las flechas verdes para mapas adyacentes.


METAR-TAF: